Time;durP1;ratioP1;P1;durP2;ratioP2;P2;SDS_P1;SDS_P2;PMS_P1;PMS_P2;Temp;Humidity;BMP_temperature;BMP_pressure;BME280_temperature;BME280_humidity;BME280_pressure;Samples;Min_cycle;Max_cycle;Signal;HPM_P1;HPM_P2
2022/11/17 00:00:14;;;;;;;2.70;2.10;;;11.90;99.90;;;;;;5108345;28;20452;-36
2022/11/17 00:02:39;;;;;;;4.77;2.17;;;11.90;99.90;;;;;;5105534;27;21164;-36
2022/11/17 00:05:05;;;;;;;4.23;1.83;;;11.90;99.90;;;;;;5107186;27;20418;-36
2022/11/17 00:07:30;;;;;;;2.20;1.60;;;11.80;99.90;;;;;;5090046;28;20217;-36
2022/11/17 00:09:56;;;;;;;2.67;1.53;;;11.80;99.90;;;;;;5089450;28;20188;-36
2022/11/17 00:15:06;;;;;;;4.63;1.60;;;11.80;99.90;;;;;;5089763;28;20195;-36
2022/11/17 00:17:32;;;;;;;2.90;1.70;;;11.80;99.90;;;;;;5089885;28;20418;-36
2022/11/17 00:22:41;;;;;;;5.37;1.97;;;11.70;99.90;;;;;;5105931;28;20225;-36
2022/11/17 00:25:07;;;;;;;3.33;1.87;;;11.60;99.90;;;;;;5096193;27;20418;-36
2022/11/17 00:27:33;;;;;;;2.60;1.70;;;11.60;99.90;;;;;;5089939;28;20213;-36
2022/11/17 00:29:58;;;;;;;3.70;2.03;;;11.60;99.90;;;;;;5089392;28;20188;-36
2022/11/17 00:35:08;;;;;;;1.70;1.30;;;11.50;99.90;;;;;;5089576;28;20272;-36
2022/11/17 00:38:14;;;;;;;6.83;1.90;;;11.50;99.90;;;;;;5099064;28;20520;-36
2022/11/17 00:40:27;;;;;;;4.13;2.70;;;11.40;99.90;;;;;;5089176;28;20717;-36
2022/11/17 00:42:53;;;;;;;2.20;1.60;;;11.40;99.90;;;;;;5102609;28;20552;-36
2022/11/17 00:45:18;;;;;;;2.60;1.53;;;11.50;99.90;;;;;;5099236;28;20219;-36
2022/11/17 00:47:44;;;;;;;3.70;1.83;;;11.40;99.90;;;;;;5109848;28;20707;-36
2022/11/17 00:50:10;;;;;;;2.40;2.20;;;11.40;99.90;;;;;;5109835;28;20195;-35
2022/11/17 00:52:35;;;;;;;3.97;2.07;;;11.40;99.90;;;;;;5109522;28;20278;-36
2022/11/17 00:55:01;;;;;;;2.07;1.77;;;11.40;99.90;;;;;;5109574;28;20275;-35
2022/11/17 00:57:27;;;;;;;4.07;1.83;;;11.40;99.90;;;;;;5109690;28;20211;-35
2022/11/17 00:59:52;;;;;;;3.43;1.60;;;11.30;99.90;;;;;;5109348;28;20192;-35
2022/11/17 01:02:18;;;;;;;4.70;1.43;;;11.30;99.90;;;;;;5113484;28;20259;-35
2022/11/17 01:04:44;;;;;;;3.23;1.73;;;11.30;99.90;;;;;;5113381;28;20199;-36
2022/11/17 01:07:09;;;;;;;3.20;1.60;;;11.30;99.90;;;;;;5113653;28;20200;-35
2022/11/17 01:09:35;;;;;;;2.00;1.40;;;11.30;99.90;;;;;;5113145;28;20591;-36
2022/11/17 01:12:01;;;;;;;3.03;1.87;;;11.30;99.90;;;;;;5113535;28;20417;-36
2022/11/17 01:14:29;;;;;;;4.47;1.63;;;11.30;99.90;;;;;;5112878;28;20179;-36
2022/11/17 01:16:55;;;;;;;2.40;1.67;;;11.30;99.90;;;;;;5101687;28;20188;-36
2022/11/17 01:19:22;;;;;;;3.10;1.73;;;11.30;99.90;;;;;;5092627;28;20414;-35
2022/11/17 01:21:47;;;;;;;4.10;2.00;;;11.40;99.90;;;;;;5094354;27;20918;-36
2022/11/17 01:24:17;;;;;;;3.67;1.90;;;11.40;99.90;;;;;;5133396;27;20519;-36
2022/11/17 01:26:44;;;;;;;2.63;1.40;;;11.40;99.90;;;;;;5133950;27;20171;-36
2022/11/17 01:29:15;;;;;;;4.43;2.20;;;11.40;99.90;;;;;;5133234;27;20427;-35
2022/11/17 01:31:42;;;;;;;2.37;2.17;;;11.40;99.90;;;;;;5133839;27;20417;-36
2022/11/17 01:34:08;;;;;;;5.50;2.30;;;11.40;99.90;;;;;;5132023;27;20416;-36
2022/11/17 01:39:22;;;;;;;2.93;1.70;;;11.30;99.90;;;;;;5133218;27;20448;-36
2022/11/17 01:41:48;;;;;;;2.97;2.23;;;11.30;99.90;;;;;;5128367;27;20457;-36
2022/11/17 01:44:52;;;;;;;4.63;2.10;;;11.30;99.90;;;;;;5112728;28;20410;-36
2022/11/17 01:47:39;;;;;;;4.73;2.17;;;11.30;99.90;;;;;;5108542;28;20198;-35
2022/11/17 01:50:23;;;;;;;3.43;2.20;;;11.30;99.90;;;;;;5112578;28;20398;-35
2022/11/17 01:52:50;;;;;;;2.83;2.00;;;11.20;99.90;;;;;;5112560;28;20496;-36
2022/11/17 01:55:18;;;;;;;2.90;2.23;;;11.20;99.90;;;;;;5112769;28;20416;-36
2022/11/17 01:57:49;;;;;;;3.33;1.80;;;11.10;99.90;;;;;;5112654;28;20417;-35
2022/11/17 02:00:15;;;;;;;4.27;2.33;;;11.10;99.90;;;;;;5112217;28;20410;-36
2022/11/17 02:02:43;;;;;;;4.67;2.23;;;11.10;99.90;;;;;;5112455;28;20815;-36
2022/11/17 02:05:21;;;;;;;4.00;1.90;;;11.10;99.90;;;;;;5112600;28;20928;-35
2022/11/17 02:07:49;;;;;;;3.17;1.80;;;11.10;99.90;;;;;;5112547;28;20987;-36
2022/11/17 02:10:15;;;;;;;1.87;1.60;;;11.00;99.90;;;;;;5112241;28;20414;-35
2022/11/17 02:12:42;;;;;;;3.30;1.53;;;11.00;99.90;;;;;;5111772;28;20416;-35
2022/11/17 02:15:08;;;;;;;3.87;1.73;;;11.00;99.90;;;;;;5112607;27;20183;-36
2022/11/17 02:17:42;;;;;;;7.57;1.50;;;11.00;99.90;;;;;;5111019;28;20452;-36
2022/11/17 02:20:31;;;;;;;2.73;1.90;;;11.00;99.90;;;;;;5112000;28;20440;-36
2022/11/17 02:23:30;;;;;;;5.17;1.77;;;11.00;99.90;;;;;;5122398;27;20538;-35
2022/11/17 02:26:12;;;;;;;2.00;1.70;;;11.00;99.90;;;;;;5132934;27;20883;-35
2022/11/17 02:28:55;;;;;;;2.73;1.60;;;11.00;99.90;;;;;;5132275;27;20409;-36
2022/11/17 02:31:39;;;;;;;3.47;1.43;;;11.00;99.90;;;;;;5132792;27;20407;-35
2022/11/17 02:34:22;;;;;;;3.77;2.10;;;11.00;99.90;;;;;;5118576;27;20426;-35
2022/11/17 02:37:26;;;;;;;3.07;1.90;;;11.00;99.90;;;;;;5101015;28;21119;-35
2022/11/17 02:40:02;;;;;;;2.80;1.67;;;10.90;99.90;;;;;;5058587;28;20430;-35
2022/11/17 02:45:56;;;;;;;3.40;1.87;;;10.90;99.90;;;;;;5091237;28;20450;-35
2022/11/17 02:48:29;;;;;;;2.10;1.90;;;10.90;99.90;;;;;;5090804;28;20426;-36
2022/11/17 02:50:56;;;;;;;4.73;1.97;;;10.90;99.90;;;;;;5091095;28;20932;-35
2022/11/17 02:53:24;;;;;;;2.80;1.60;;;10.80;99.90;;;;;;5090978;28;20459;-36
2022/11/17 02:55:53;;;;;;;4.00;2.50;;;10.90;99.90;;;;;;5091111;28;20916;-36
2022/11/17 02:58:20;;;;;;;4.03;1.70;;;10.90;99.90;;;;;;5091143;28;20757;-35
2022/11/17 03:01:29;;;;;;;2.90;1.73;;;10.80;99.90;;;;;;5090426;28;20434;-36
2022/11/17 03:04:06;;;;;;;2.50;1.50;;;10.80;99.90;;;;;;5061561;28;20439;-35
2022/11/17 03:07:26;;;;;;;2.10;1.30;;;10.80;99.90;;;;;;5087676;28;20454;-35
2022/11/17 03:10:07;;;;;;;3.33;1.23;;;10.80;99.90;;;;;;5083708;28;20474;-35
2022/11/17 03:12:44;;;;;;;2.13;1.30;;;10.90;99.90;;;;;;5090634;28;20959;-35
2022/11/17 03:15:21;;;;;;;2.20;2.03;;;10.90;99.90;;;;;;5090759;28;20447;-35
2022/11/17 03:18:01;;;;;;;2.70;1.77;;;10.90;99.90;;;;;;5098380;28;20508;-35
2022/11/17 03:20:44;;;;;;;1.60;1.50;;;10.90;99.90;;;;;;5100563;28;20432;-35
2022/11/17 03:23:27;;;;;;;4.00;1.23;;;10.90;99.90;;;;;;5112611;27;20976;-35
2022/11/17 03:25:57;;;;;;;1.77;1.37;;;10.90;99.90;;;;;;5131344;27;20474;-35
2022/11/17 03:28:28;;;;;;;6.23;1.57;;;10.80;99.90;;;;;;5130360;27;20401;-35
2022/11/17 03:30:55;;;;;;;1.73;1.03;;;10.80;99.90;;;;;;5131038;27;20909;-35
2022/11/17 03:33:23;;;;;;;1.60;1.13;;;10.70;99.90;;;;;;5129563;27;20412;-35
2022/11/17 03:36:06;;;;;;;1.83;1.20;;;10.70;99.90;;;;;;5131630;27;20477;-35
2022/11/17 03:38:37;;;;;;;2.20;1.30;;;10.70;99.90;;;;;;5131048;27;20925;-35
2022/11/17 03:41:06;;;;;;;4.03;1.37;;;10.70;99.90;;;;;;5131640;27;20810;-36
2022/11/17 03:43:32;;;;;;;2.10;1.13;;;10.80;99.90;;;;;;5111201;27;20453;-35
2022/11/17 03:46:04;;;;;;;1.10;1.00;;;10.70;99.90;;;;;;5110922;28;20421;-36
2022/11/17 03:48:39;;;;;;;2.17;1.50;;;10.70;99.90;;;;;;5110379;28;20892;-35
2022/11/17 03:51:11;;;;;;;1.43;1.33;;;10.80;99.90;;;;;;5110694;28;20462;-35
2022/11/17 03:53:37;;;;;;;1.57;1.20;;;10.80;99.90;;;;;;5110267;28;20414;-35
2022/11/17 03:56:32;;;;;;;1.90;1.17;;;10.70;99.90;;;;;;5110719;28;21137;-36
2022/11/17 03:59:02;;;;;;;1.03;0.90;;;10.70;99.90;;;;;;5110074;28;20187;-35
2022/11/17 04:01:30;;;;;;;4.10;1.10;;;10.80;99.90;;;;;;5110448;28;20841;-35
2022/11/17 04:03:55;;;;;;;1.20;1.10;;;10.80;99.90;;;;;;5110304;28;20445;-35
2022/11/17 04:06:21;;;;;;;2.03;1.10;;;10.80;99.90;;;;;;5110312;28;20461;-35
2022/11/17 04:08:47;;;;;;;2.30;1.20;;;10.70;99.90;;;;;;5110240;28;20492;-35
2022/11/17 04:16:41;;;;;;;0.97;0.73;;;10.70;99.90;;;;;;5110220;28;20433;-36
2022/11/17 04:19:07;;;;;;;1.70;1.10;;;10.70;99.90;;;;;;5110067;28;20914;-35
2022/11/17 04:21:33;;;;;;;1.10;0.97;;;10.70;99.90;;;;;;5110181;28;20439;-36
2022/11/17 04:23:59;;;;;;;1.03;0.93;;;10.70;99.90;;;;;;5128965;28;20179;-36
2022/11/17 04:29:09;;;;;;;1.10;1.00;;;10.70;99.90;;;;;;5130590;28;20183;-36
2022/11/17 04:31:35;;;;;;;2.47;1.10;;;10.70;99.90;;;;;;5130803;27;20408;-35
2022/11/17 04:34:03;;;;;;;2.20;2.10;;;10.70;99.90;;;;;;5129072;27;20202;-35
2022/11/17 04:36:31;;;;;;;1.60;0.87;;;10.80;99.90;;;;;;5134854;27;20181;-36
2022/11/17 04:38:58;;;;;;;2.33;1.10;;;10.80;99.90;;;;;;5133161;27;20829;-35
2022/11/17 04:44:13;;;;;;;3.80;1.10;;;10.80;99.90;;;;;;5113797;28;20412;-35
2022/11/17 04:46:39;;;;;;;1.43;1.33;;;10.90;99.90;;;;;;5114303;28;20417;-35
2022/11/17 04:49:06;;;;;;;2.70;1.60;;;10.80;99.90;;;;;;5113331;28;20409;-35
2022/11/17 04:51:33;;;;;;;1.37;1.10;;;10.80;99.90;;;;;;5114114;28;20484;-35
2022/11/17 04:53:59;;;;;;;2.50;1.43;;;10.80;99.90;;;;;;5113584;28;20417;-35
2022/11/17 04:56:26;;;;;;;2.33;1.40;;;10.90;99.90;;;;;;5114104;28;20413;-36
2022/11/17 04:58:52;;;;;;;2.40;1.00;;;10.80;99.90;;;;;;5113453;28;20422;-35
2022/11/17 05:01:18;;;;;;;3.47;1.23;;;10.90;99.90;;;;;;5113981;28;20413;-35
2022/11/17 05:03:50;;;;;;;1.30;1.20;;;10.90;99.90;;;;;;5113443;28;20457;-36
2022/11/17 05:06:37;;;;;;;1.60;1.10;;;10.90;99.90;;;;;;5113813;28;20791;-35
2022/11/17 05:09:07;;;;;;;1.63;1.17;;;10.90;99.90;;;;;;5113462;28;20409;-35
2022/11/17 05:14:20;;;;;;;1.90;1.30;;;10.90;99.90;;;;;;5113326;28;20449;-35
2022/11/17 05:17:04;;;;;;;1.30;1.20;;;10.90;99.90;;;;;;5113511;28;20428;-36
2022/11/17 05:19:32;;;;;;;2.13;1.47;;;10.90;99.90;;;;;;5113333;28;20406;-36
2022/11/17 05:21:58;;;;;;;5.77;1.67;;;10.90;99.90;;;;;;5115307;27;20843;-36
2022/11/17 05:24:24;;;;;;;1.40;1.10;;;11.00;99.90;;;;;;5133411;27;20412;-36
2022/11/17 05:26:50;;;;;;;3.63;1.30;;;10.90;99.90;;;;;;5132558;27;20653;-37
2022/11/17 05:29:19;;;;;;;3.13;1.50;;;11.00;99.90;;;;;;5133587;27;20503;-36
2022/11/17 05:31:45;;;;;;;1.23;1.07;;;11.00;99.90;;;;;;5133831;27;20183;-35
2022/11/17 05:34:13;;;;;;;1.53;1.40;;;11.00;99.90;;;;;;5132098;27;20759;-35
2022/11/17 05:36:40;;;;;;;1.47;1.20;;;10.90;99.90;;;;;;5133789;27;20447;-36
2022/11/17 05:39:06;;;;;;;3.67;1.30;;;10.90;99.90;;;;;;5133199;27;20421;-35
2022/11/17 05:41:33;;;;;;;2.07;1.23;;;11.00;99.90;;;;;;5120853;27;20444;-36
2022/11/17 05:43:58;;;;;;;2.50;1.30;;;11.00;99.90;;;;;;5104602;27;20540;-35
2022/11/17 05:46:25;;;;;;;3.17;1.50;;;11.00;99.90;;;;;;5121921;27;20870;-36
2022/11/17 05:48:52;;;;;;;1.63;1.30;;;11.00;99.90;;;;;;5124865;27;20167;-36
2022/11/17 05:51:20;;;;;;;1.70;1.27;;;11.10;99.90;;;;;;5117408;27;20923;-36
2022/11/17 05:53:46;;;;;;;3.20;1.70;;;11.10;99.90;;;;;;5123811;27;20495;-36
2022/11/17 05:56:41;;;;;;;3.27;1.27;;;11.10;99.90;;;;;;5133269;27;20937;-36
2022/11/17 05:59:18;;;;;;;3.33;1.57;;;11.10;99.90;;;;;;5131403;27;20436;-36
2022/11/17 06:02:22;;;;;;;2.53;1.70;;;11.10;99.90;;;;;;5133286;27;20491;-37
2022/11/17 06:04:48;;;;;;;3.23;1.63;;;11.10;99.90;;;;;;5131985;27;20577;-35
2022/11/17 06:07:16;;;;;;;4.70;1.97;;;11.10;99.90;;;;;;5133260;27;20432;-35
2022/11/17 06:09:42;;;;;;;2.50;1.63;;;11.10;99.90;;;;;;5132691;27;20492;-35
2022/11/17 06:12:10;;;;;;;3.40;1.83;;;11.00;99.90;;;;;;5133126;27;20934;-35
2022/11/17 06:14:38;;;;;;;3.60;1.90;;;11.00;99.90;;;;;;5132493;27;20350;-35
2022/11/17 06:17:19;;;;;;;2.70;1.80;;;11.00;99.90;;;;;;5133336;27;20775;-35
2022/11/17 06:20:09;;;;;;;3.87;1.90;;;11.00;99.90;;;;;;5132546;27;20407;-35
2022/11/17 06:22:35;;;;;;;3.50;2.13;;;11.00;99.90;;;;;;5132273;27;20549;-35
2022/11/17 06:25:04;;;;;;;2.80;2.00;;;10.90;99.90;;;;;;5132549;27;20434;-35
2022/11/17 06:27:31;;;;;;;3.50;2.20;;;10.90;99.90;;;;;;5132771;27;20444;-35
2022/11/17 06:30:00;;;;;;;3.97;1.60;;;10.90;99.90;;;;;;5132387;27;20872;-35
2022/11/17 06:32:27;;;;;;;2.77;1.97;;;10.90;99.90;;;;;;5132406;27;20417;-35
2022/11/17 06:34:53;;;;;;;2.90;2.10;;;10.90;99.90;;;;;;5129912;27;20424;-35
2022/11/17 06:37:19;;;;;;;3.50;2.30;;;10.90;99.90;;;;;;5128201;27;20425;-36
2022/11/17 06:39:44;;;;;;;2.70;1.77;;;10.90;99.90;;;;;;5110379;28;20520;-35
2022/11/17 06:42:10;;;;;;;3.40;1.97;;;10.90;99.90;;;;;;5111709;28;20552;-35
2022/11/17 06:44:36;;;;;;;4.57;2.07;;;10.90;99.90;;;;;;5111611;28;20211;-36
2022/11/17 06:47:01;;;;;;;2.50;1.83;;;10.80;99.90;;;;;;5111776;28;20183;-36
2022/11/17 06:49:27;;;;;;;5.50;1.80;;;10.80;99.90;;;;;;5107731;27;20180;-35
2022/11/17 06:51:53;;;;;;;3.27;2.10;;;10.90;99.90;;;;;;5125441;27;20271;-35
2022/11/17 06:54:18;;;;;;;2.90;2.30;;;10.90;99.90;;;;;;5110416;27;20192;-35
2022/11/17 06:56:44;;;;;;;3.23;2.17;;;10.90;99.90;;;;;;5099858;28;20188;-35
2022/11/17 06:59:10;;;;;;;6.23;2.20;;;10.90;99.90;;;;;;5100375;28;20183;-36
2022/11/17 07:01:36;;;;;;;2.23;1.40;;;10.90;99.90;;;;;;5106369;27;20441;-35
2022/11/17 07:04:02;;;;;;;3.43;1.90;;;11.00;99.90;;;;;;5102253;27;20569;-35
2022/11/17 07:06:28;;;;;;;4.33;1.80;;;10.90;99.90;;;;;;5102166;27;20540;-35
2022/11/17 07:08:54;;;;;;;2.70;1.70;;;11.00;99.90;;;;;;5098206;28;20524;-35
2022/11/17 07:11:19;;;;;;;2.63;1.70;;;10.90;99.90;;;;;;5110300;27;20194;-35
2022/11/17 07:13:45;;;;;;;2.20;1.60;;;11.00;99.90;;;;;;5120870;27;20187;-35
2022/11/17 07:16:16;;;;;;;2.40;1.50;;;11.00;99.90;;;;;;5131335;27;20211;-35
2022/11/17 07:18:42;;;;;;;2.00;1.70;;;11.00;99.90;;;;;;5130882;27;20690;-35
2022/11/17 07:21:10;;;;;;;2.10;1.20;;;11.00;99.90;;;;;;5131066;27;20424;-36
2022/11/17 07:23:37;;;;;;;2.00;1.10;;;11.00;99.90;;;;;;5130395;27;20302;-35
2022/11/17 07:26:03;;;;;;;3.73;1.60;;;11.00;99.90;;;;;;5129610;27;20465;-36
2022/11/17 07:28:29;;;;;;;3.33;1.40;;;11.00;99.90;;;;;;5129806;27;20417;-35
2022/11/17 07:30:55;;;;;;;2.07;1.27;;;11.00;99.90;;;;;;5131146;27;20431;-36
2022/11/17 07:33:21;;;;;;;2.13;1.17;;;11.00;99.90;;;;;;5129777;27;20175;-35
2022/11/17 07:35:47;;;;;;;1.50;1.10;;;11.00;99.90;;;;;;5131139;27;20424;-35
2022/11/17 07:38:13;;;;;;;2.50;0.90;;;11.00;99.90;;;;;;5131493;27;20429;-35
2022/11/17 07:40:39;;;;;;;1.30;1.20;;;11.00;99.90;;;;;;5130944;27;20408;-35
2022/11/17 07:43:05;;;;;;;3.63;1.30;;;11.00;99.90;;;;;;5113919;27;21023;-35
2022/11/17 07:45:31;;;;;;;1.60;1.07;;;11.00;99.90;;;;;;5110735;28;20175;-36
2022/11/17 07:47:59;;;;;;;1.73;0.90;;;10.90;99.90;;;;;;5103621;28;20445;-36
2022/11/17 07:50:26;;;;;;;1.77;1.10;;;10.90;99.90;;;;;;5100313;28;20206;-36
2022/11/17 07:52:54;;;;;;;1.63;1.03;;;11.00;99.90;;;;;;5101726;28;20432;-36
2022/11/17 07:55:20;;;;;;;1.90;1.07;;;10.90;99.90;;;;;;5110694;28;20409;-36
2022/11/17 07:57:46;;;;;;;2.20;1.13;;;11.00;99.90;;;;;;5110494;28;20417;-36
2022/11/17 08:00:13;;;;;;;1.10;0.90;;;11.00;99.90;;;;;;5110234;28;20777;-35
2022/11/17 08:02:39;;;;;;;3.93;1.37;;;11.00;99.90;;;;;;5110145;28;20327;-36
2022/11/17 08:05:05;;;;;;;2.90;0.90;;;11.00;99.90;;;;;;5110296;28;20429;-35
2022/11/17 08:07:31;;;;;;;6.60;1.87;;;11.00;99.90;;;;;;5110595;28;20429;-35
2022/11/17 08:09:57;;;;;;;2.30;1.13;;;11.10;99.90;;;;;;5109781;28;20417;-36
2022/11/17 08:12:23;;;;;;;2.60;1.50;;;11.10;99.90;;;;;;5110181;28;20267;-35
2022/11/17 08:14:48;;;;;;;2.60;1.20;;;11.10;99.90;;;;;;5110301;28;20709;-35
2022/11/17 08:17:15;;;;;;;2.80;1.17;;;11.10;99.90;;;;;;5110291;28;20556;-35
2022/11/17 08:19:40;;;;;;;2.33;1.30;;;11.10;99.90;;;;;;5109855;28;20229;-36
2022/11/17 08:22:06;;;;;;;1.53;0.90;;;11.10;99.90;;;;;;5105406;28;20470;-35
2022/11/17 08:24:31;;;;;;;4.23;1.00;;;11.10;99.90;;;;;;5089457;28;20271;-36
2022/11/17 08:26:57;;;;;;;2.00;1.00;;;11.10;99.90;;;;;;5090041;28;20180;-36
2022/11/17 08:29:23;;;;;;;2.37;1.10;;;11.20;99.90;;;;;;5089521;28;20177;-36
2022/11/17 08:31:49;;;;;;;4.30;1.20;;;11.20;99.90;;;;;;5089957;28;20192;-36
2022/11/17 08:34:15;;;;;;;2.43;1.00;;;11.20;99.90;;;;;;5087776;28;20433;-36
2022/11/17 08:36:41;;;;;;;1.80;0.97;;;11.20;99.90;;;;;;5090172;28;20488;-35
2022/11/17 08:39:07;;;;;;;3.10;1.10;;;11.20;99.90;;;;;;5089314;28;20418;-36
2022/11/17 08:41:32;;;;;;;1.77;0.93;;;11.30;99.90;;;;;;5092420;28;20423;-36
2022/11/17 08:43:58;;;;;;;1.80;0.97;;;11.20;99.90;;;;;;5109989;28;20267;-36
2022/11/17 08:46:27;;;;;;;2.67;0.70;;;11.20;99.90;;;;;;5104611;28;20188;-35
2022/11/17 08:48:52;;;;;;;2.00;0.80;;;11.30;99.90;;;;;;5089475;28;20196;-36
2022/11/17 08:51:18;;;;;;;1.47;1.10;;;11.20;99.90;;;;;;5089562;28;21039;-35
2022/11/17 08:53:44;;;;;;;1.83;0.83;;;11.20;99.90;;;;;;5088303;28;20184;-36
2022/11/17 08:56:11;;;;;;;4.20;1.00;;;11.20;99.90;;;;;;5089563;28;20546;-36
2022/11/17 08:58:38;;;;;;;1.23;1.13;;;11.20;99.90;;;;;;5089383;28;20192;-36
2022/11/17 09:01:17;;;;;;;1.80;1.17;;;11.20;99.90;;;;;;5096226;28;20516;-36
2022/11/17 09:03:44;;;;;;;1.10;1.00;;;11.30;99.90;;;;;;5109883;28;20844;-36
2022/11/17 09:06:11;;;;;;;1.93;0.80;;;11.20;99.90;;;;;;5109779;28;20429;-36
2022/11/17 09:08:37;;;;;;;2.77;1.07;;;11.20;99.90;;;;;;5109583;28;20422;-36
2022/11/17 09:11:08;;;;;;;1.83;0.87;;;11.30;99.90;;;;;;5106656;28;20726;-36
2022/11/17 09:13:35;;;;;;;2.50;0.93;;;11.30;99.90;;;;;;5109080;28;20433;-35
2022/11/17 09:16:06;;;;;;;2.73;0.90;;;11.20;99.90;;;;;;5108011;28;20524;-35
2022/11/17 09:18:32;;;;;;;0.90;0.63;;;11.30;99.90;;;;;;5115296;28;20425;-35
2022/11/17 09:21:03;;;;;;;5.70;1.00;;;11.30;99.90;;;;;;5129271;27;20424;-36
2022/11/17 09:23:30;;;;;;;1.50;0.90;;;11.30;99.90;;;;;;5133085;27;20509;-37
2022/11/17 09:25:56;;;;;;;2.67;1.00;;;11.40;99.90;;;;;;5133807;27;20416;-36
2022/11/17 09:28:25;;;;;;;1.67;0.70;;;11.40;99.90;;;;;;5133242;27;20423;-35
2022/11/17 09:30:52;;;;;;;5.23;1.00;;;11.40;99.90;;;;;;5133689;27;20438;-36
2022/11/17 09:33:18;;;;;;;1.90;0.63;;;11.50;99.90;;;;;;5131863;27;20425;-35
2022/11/17 09:35:44;;;;;;;1.33;0.83;;;11.50;99.90;;;;;;5133993;27;20459;-36
2022/11/17 09:38:10;;;;;;;2.03;0.90;;;11.50;99.90;;;;;;5133757;27;20428;-36
2022/11/17 09:40:38;;;;;;;2.00;0.80;;;11.60;99.90;;;;;;5133268;27;20424;-36
2022/11/17 09:43:27;;;;;;;2.50;0.83;;;11.60;99.90;;;;;;5117706;27;20204;-36
2022/11/17 09:46:02;;;;;;;1.67;0.73;;;11.60;99.90;;;;;;5109272;28;20422;-36
2022/11/17 09:48:54;;;;;;;1.77;0.63;;;11.60;99.90;;;;;;5111448;28;20473;-36
2022/11/17 09:51:23;;;;;;;2.30;0.97;;;11.70;99.90;;;;;;5110610;28;20467;-36
2022/11/17 09:54:19;;;;;;;2.80;0.60;;;11.70;99.90;;;;;;5116788;27;20476;-35
2022/11/17 09:56:46;;;;;;;1.10;0.60;;;11.70;99.90;;;;;;5115581;27;20433;-36
2022/11/17 09:59:18;;;;;;;2.63;0.80;;;11.80;99.90;;;;;;5117689;27;20469;-35
2022/11/17 10:01:44;;;;;;;1.63;1.03;;;11.80;99.90;;;;;;5123479;27;20426;-36
2022/11/17 10:04:11;;;;;;;1.70;0.80;;;11.70;99.90;;;;;;5133033;27;20423;-36
2022/11/17 10:06:38;;;;;;;4.53;0.90;;;11.80;99.90;;;;;;5133036;27;20324;-36
2022/11/17 10:09:22;;;;;;;1.03;0.80;;;11.90;99.90;;;;;;5132866;27;20441;-35
2022/11/17 10:11:48;;;;;;;2.27;0.90;;;11.90;99.90;;;;;;5133085;27;20408;-36
2022/11/17 10:14:20;;;;;;;2.40;0.70;;;11.90;99.90;;;;;;5132726;27;20979;-36
2022/11/17 10:16:57;;;;;;;1.73;0.80;;;12.00;99.90;;;;;;5132996;27;20171;-36
2022/11/17 10:19:28;;;;;;;2.27;0.87;;;12.00;99.90;;;;;;5132618;27;20451;-36
2022/11/17 10:22:17;;;;;;;6.57;0.87;;;12.00;99.90;;;;;;5132819;27;20453;-36
2022/11/17 10:24:49;;;;;;;1.93;0.70;;;12.00;99.90;;;;;;5132620;27;20495;-36
2022/11/17 10:27:20;;;;;;;2.13;0.83;;;12.00;99.90;;;;;;5132645;27;20425;-36
2022/11/17 10:29:54;;;;;;;3.30;0.80;;;12.00;99.90;;;;;;5131135;27;20408;-36
2022/11/17 10:32:20;;;;;;;1.17;0.67;;;12.00;99.90;;;;;;5132359;27;20408;-36
2022/11/17 10:34:46;;;;;;;1.43;0.70;;;12.00;99.90;;;;;;5131063;27;20439;-36
2022/11/17 10:37:11;;;;;;;0.80;0.60;;;11.90;99.90;;;;;;5132597;27;20187;-36
2022/11/17 10:39:40;;;;;;;2.60;0.93;;;11.90;99.90;;;;;;5132222;27;20175;-36
2022/11/17 10:42:12;;;;;;;1.53;0.60;;;11.90;99.90;;;;;;5125193;27;20299;-36
2022/11/17 10:44:42;;;;;;;2.20;0.80;;;12.00;99.90;;;;;;5111541;28;20418;-36
2022/11/17 10:47:22;;;;;;;1.53;0.77;;;12.00;99.90;;;;;;5112043;28;20470;-36
2022/11/17 10:50:06;;;;;;;3.63;0.87;;;12.00;99.90;;;;;;5111319;28;21057;-36
2022/11/17 10:52:32;;;;;;;4.77;0.80;;;12.00;99.90;;;;;;5111613;28;20508;-36
2022/11/17 10:55:22;;;;;;;1.90;0.77;;;12.00;99.90;;;;;;5111452;28;20525;-35
2022/11/17 10:58:17;;;;;;;1.87;0.50;;;12.00;99.90;;;;;;5111573;28;20199;-36
2022/11/17 11:00:50;;;;;;;1.47;0.70;;;12.00;99.90;;;;;;5111238;28;20416;-36
2022/11/17 11:03:21;;;;;;;1.07;0.57;;;12.00;99.90;;;;;;5111146;28;20536;-35
2022/11/17 11:06:20;;;;;;;4.50;1.97;;;12.00;99.90;;;;;;5111368;28;20442;-35
2022/11/17 11:08:53;;;;;;;1.30;0.60;;;12.00;99.90;;;;;;5111328;28;20443;-37
2022/11/17 11:11:37;;;;;;;1.57;0.80;;;12.00;99.90;;;;;;5111245;28;20453;-35
2022/11/17 11:14:30;;;;;;;2.00;0.73;;;12.10;99.90;;;;;;5111191;28;20428;-36
2022/11/17 11:16:56;;;;;;;0.73;0.50;;;12.10;99.90;;;;;;5111173;28;20458;-36
2022/11/17 11:19:22;;;;;;;1.17;0.50;;;12.10;99.90;;;;;;5110918;28;20907;-36
2022/11/17 11:22:15;;;;;;;2.17;0.60;;;12.10;99.90;;;;;;5111590;27;20456;-36
2022/11/17 11:24:54;;;;;;;1.53;0.53;;;12.10;99.90;;;;;;5130181;27;20182;-35
2022/11/17 11:27:29;;;;;;;0.80;0.53;;;12.10;99.90;;;;;;5130490;27;20834;-35
2022/11/17 11:30:07;;;;;;;2.00;0.53;;;12.20;99.90;;;;;;5131267;27;20416;-36
2022/11/17 11:32:40;;;;;;;1.67;0.80;;;12.20;99.90;;;;;;5129859;27;20413;-36
2022/11/17 11:35:44;;;;;;;1.33;0.70;;;12.20;99.90;;;;;;5131523;27;20412;-35
2022/11/17 11:38:45;;;;;;;1.57;0.70;;;12.20;99.90;;;;;;5107384;27;20911;-36
2022/11/17 11:41:30;;;;;;;1.53;0.73;;;12.20;99.90;;;;;;5128322;27;20988;-36
2022/11/17 11:44:01;;;;;;;3.00;1.30;;;12.20;99.90;;;;;;5088209;28;20473;-36
2022/11/17 11:46:30;;;;;;;1.50;0.60;;;12.20;99.90;;;;;;5090454;28;20501;-36
2022/11/17 11:49:01;;;;;;;1.77;0.90;;;12.20;99.90;;;;;;5090223;28;20799;-36
2022/11/17 11:51:33;;;;;;;1.60;0.67;;;12.40;99.90;;;;;;5089122;28;20482;-36
2022/11/17 11:54:07;;;;;;;2.37;0.90;;;12.60;99.90;;;;;;5090077;28;20430;-36
2022/11/17 11:56:38;;;;;;;1.90;0.83;;;12.70;99.90;;;;;;5090261;28;21109;-36
2022/11/17 11:59:11;;;;;;;1.07;0.80;;;12.70;99.90;;;;;;5088740;28;20426;-36
2022/11/17 12:01:49;;;;;;;1.90;0.80;;;12.80;99.90;;;;;;5090101;28;20418;-37
2022/11/17 12:04:36;;;;;;;1.77;0.63;;;12.70;99.90;;;;;;5089980;28;20745;-36
2022/11/17 12:07:10;;;;;;;0.80;0.50;;;12.70;99.90;;;;;;5089992;28;20428;-36
2022/11/17 12:09:38;;;;;;;1.87;0.70;;;12.70;99.90;;;;;;5089844;28;20893;-35
2022/11/17 12:12:37;;;;;;;3.53;0.97;;;12.70;99.90;;;;;;5089967;28;20513;-36
2022/11/17 12:15:16;;;;;;;1.20;0.70;;;12.60;99.90;;;;;;5081069;28;20422;-36
2022/11/17 12:17:51;;;;;;;2.70;0.67;;;12.60;99.90;;;;;;5088694;28;20418;-36
2022/11/17 12:20:34;;;;;;;3.07;0.83;;;12.60;99.90;;;;;;5089744;28;20497;-36
2022/11/17 12:23:21;;;;;;;1.10;0.67;;;12.50;99.90;;;;;;5110940;28;20463;-36
2022/11/17 12:25:50;;;;;;;1.63;0.90;;;12.50;99.90;;;;;;5131014;27;20483;-36
2022/11/17 12:28:39;;;;;;;1.37;0.60;;;12.50;99.90;;;;;;5130736;27;20396;-36
2022/11/17 12:31:30;;;;;;;1.10;0.57;;;12.50;99.90;;;;;;5130865;27;20416;-36
2022/11/17 12:33:59;;;;;;;1.47;0.50;;;12.50;99.90;;;;;;5128920;28;20452;-36
2022/11/17 12:36:32;;;;;;;0.70;0.60;;;12.60;99.90;;;;;;5130888;27;20415;-36
2022/11/17 12:38:59;;;;;;;0.80;0.50;;;12.60;99.90;;;;;;5130409;27;20444;-36
2022/11/17 12:41:47;;;;;;;2.87;1.00;;;12.60;99.90;;;;;;5128853;27;20423;-36
2022/11/17 12:44:31;;;;;;;1.23;0.50;;;12.50;99.90;;;;;;5109629;28;20417;-36
2022/11/17 12:47:42;;;;;;;0.77;0.53;;;12.60;99.90;;;;;;5110342;28;20406;-36
2022/11/17 12:50:17;;;;;;;1.23;0.70;;;12.60;99.90;;;;;;5109635;28;20811;-36
2022/11/17 12:53:18;;;;;;;4.20;0.90;;;12.60;99.90;;;;;;5109959;28;20775;-36
2022/11/17 12:56:01;;;;;;;3.07;0.80;;;12.60;99.90;;;;;;5110155;28;20529;-36
2022/11/17 12:58:47;;;;;;;2.67;0.87;;;12.50;99.90;;;;;;5113750;28;20483;-36
2022/11/17 13:01:23;;;;;;;1.40;0.70;;;12.60;99.90;;;;;;5114021;28;20774;-36
2022/11/17 13:04:01;;;;;;;4.10;0.93;;;12.50;99.90;;;;;;5113677;28;20499;-36
2022/11/17 13:06:27;;;;;;;1.43;0.60;;;12.50;99.90;;;;;;5113619;28;20930;-36
2022/11/17 13:08:55;;;;;;;1.40;0.53;;;12.50;99.90;;;;;;5113376;28;20418;-36
2022/11/17 13:11:21;;;;;;;8.30;1.67;;;12.60;99.90;;;;;;5113692;28;20182;-36
2022/11/17 13:13:47;;;;;;;2.80;0.70;;;12.60;99.90;;;;;;5113563;28;20470;-36
2022/11/17 13:16:20;;;;;;;2.70;0.70;;;12.60;99.90;;;;;;5113711;28;20413;-37
2022/11/17 13:18:47;;;;;;;1.30;0.57;;;12.50;99.90;;;;;;5113098;28;20186;-36
2022/11/17 13:21:28;;;;;;;2.20;0.80;;;12.50;99.90;;;;;;5113483;28;20421;-36
2022/11/17 13:23:55;;;;;;;3.13;0.60;;;12.50;99.90;;;;;;5131133;27;20547;-36
2022/11/17 13:26:36;;;;;;;1.70;0.63;;;12.50;99.90;;;;;;5134029;27;20401;-36
2022/11/17 13:29:03;;;;;;;2.97;0.90;;;12.40;99.90;;;;;;5132298;27;20404;-36
2022/11/17 13:31:29;;;;;;;1.50;0.80;;;12.50;99.90;;;;;;5133837;27;20407;-36
2022/11/17 13:34:06;;;;;;;1.00;0.70;;;12.40;99.90;;;;;;5132519;27;20409;-36
2022/11/17 13:36:32;;;;;;;2.60;0.67;;;12.50;99.90;;;;;;5133922;27;20625;-36
2022/11/17 13:39:01;;;;;;;1.43;0.60;;;12.40;99.90;;;;;;5133604;27;20490;-36